Arnoldsville, GA

3:35 AM EST on March 04, 2015 (GMT -0500)
Wyndfield | Change Station
CLOSE
Current Station
Personal Weather Station
Location: Athens-Clarke County, GA
Elevation: 647 ft
Nearby Weather Stations
Active Advisory: Dense Fog Advisory

Elev 647 ft 33.91 °N, 83.30 °W | Updated 10 seconds ago

Fog
Fog
46.7 °F
Feels Like 47 °F
N
0.0
Wind Variable Wind from North
Gusts 0.0 mph

Today
High -- | Low -- °F
--% Chance of Precip.
Yesterday
High -- | Low -- °F
Precip. -- in
6:58 AM 6:31 PM
Waxing Gibbous, 98% visible
Pressure 30.08 in
Visibility 0.2 miles
Clouds
Windchill 47 °F
Dew Point 14 °F
Humidity 26%
Rainfall 0.00 in
Snow Depth Not available.
UV Not available.
Pollen .90 out of 12
Air Quality Not available.
Flu Activity Not available.
METAR KAHN 040751Z AUTO 00000KT 1/4SM FG VV002 08/08 A3007 RMK AO2 SLP184 T00780078

More Conditions Fewer Conditions

Pressure 30.08 in
Visibility 0.2 miles
Clouds
Windchill 47 °F
Dew Point 14 °F
Humidity 26%
Rainfall 0.00 in
Snow Depth Not available.
UV Not available.
Pollen .90 out of 12
Air Quality Not available.
Flu Activity Not available.
METAR KAHN 040751Z AUTO 00000KT 1/4SM FG VV002 08/08 A3007 RMK AO2 SLP184 T00780078

More Conditions Fewer Conditions

10-Day Weather Forecast

Almanac

Astronomy

Mar. 04, 2015 Rise Set
Actual Time
Civil Twilight
Nautical Twilight
Astronomical Twilight
Moon
Length of Visible Light
Length of Day
Tomorrow will be .
, % of the Moon is Illuminated

Today's Extremes

State Highs State Lows

Community

WunderPhotos

Upload Photos

1,802,416 photos uploaded!

WunderBlogs® & News

Nearby

Air Quality

  Air Quality AQ Index Pollutant
Not available.

Snow Depth

Station Depth Elevation

Earthquake Activity

City Distance Mag. Time & Date
Minimum magnitude displayed is 2.5.

Coastal Water Temperatures

Place Temperature

Nearby Weather Stations

Dense Fog Advisory
Statement as of 3:25 AM EST on March 04, 2015

... Dense fog advisory remains in effect until 10 am EST this
morning...

* locations... areas across north and central Georgia mainly north and
east of a line from Blue Ridge to Marietta... Macon and Swainsboro.

* Visibilities... one quarter of a mile or less.

* Timing... through 10 am.

* Impacts... dense fog will create low visibilities through the
morning commute.

Precautionary/preparedness actions...

A dense fog advisory means visibilities will frequently be reduced to
less than one quarter mile. If driving... slow down... use your low-
beam headlights... and leave plenty of distance ahead of you.